createdAt,value
2022-09-28T00:00:21.194Z,98555.60
2022-09-28T00:03:14.211Z,98554.60
2022-09-28T00:05:46.833Z,98550.60
2022-09-28T00:08:20.018Z,98549.40
2022-09-28T00:11:00.496Z,98546.20
2022-09-28T00:13:33.057Z,98544.60
2022-09-28T00:16:08.975Z,98548.00
2022-09-28T00:18:41.695Z,98547.40
2022-09-28T00:21:17.703Z,98546.20
2022-09-28T00:24:09.890Z,98538.80
2022-09-28T00:26:45.736Z,98535.00
2022-09-28T00:29:26.676Z,98528.80
2022-09-28T00:32:06.947Z,98525.80
2022-09-28T00:34:49.079Z,98520.20
2022-09-28T00:37:24.428Z,98519.60
2022-09-28T00:39:59.773Z,98517.60
2022-09-28T00:42:36.537Z,98514.80
2022-09-28T00:45:18.588Z,98510.20
2022-09-28T00:47:53.611Z,98511.80
2022-09-28T00:50:36.182Z,98513.40
2022-09-28T00:53:17.328Z,98516.40
2022-09-28T00:55:57.342Z,98513.80
2022-09-28T00:58:42.392Z,98513.40
2022-09-28T01:01:16.970Z,98507.00
2022-09-28T01:03:53.788Z,98508.00
2022-09-28T01:06:33.849Z,98510.60
2022-09-28T01:09:12.121Z,98508.80
2022-09-28T01:11:46.112Z,98510.80
2022-09-28T01:14:20.927Z,98504.20
2022-09-28T01:17:00.300Z,98507.20
2022-09-28T01:20:35.166Z,98504.00
2022-09-28T01:23:51.388Z,98502.80
2022-09-28T01:26:57.147Z,98511.40
2022-09-28T01:29:51.790Z,98508.00
2022-09-28T01:32:37.973Z,98502.80
2022-09-28T01:35:16.628Z,98498.40
2022-09-28T01:37:54.036Z,98503.60
2022-09-28T01:40:30.001Z,98500.60
2022-09-28T01:43:06.913Z,98502.20
2022-09-28T01:45:45.942Z,98500.60
2022-09-28T01:48:24.408Z,98501.80
2022-09-28T01:51:03.428Z,98502.80
2022-09-28T01:53:41.590Z,98501.20
2022-09-28T01:56:27.256Z,98502.20
2022-09-28T01:59:11.878Z,98499.40
2022-09-28T02:01:49.101Z,98500.60
2022-09-28T02:04:26.490Z,98496.60
2022-09-28T02:07:07.840Z,98501.60
2022-09-28T02:09:47.377Z,98503.20
2022-09-28T02:12:26.125Z,98499.60
2022-09-28T02:15:07.970Z,98499.40
2022-09-28T02:17:40.886Z,98496.60
2022-09-28T02:20:14.444Z,98496.60
2022-09-28T02:22:51.959Z,98501.80
2022-09-28T02:25:32.200Z,98502.60
2022-09-28T02:28:07.931Z,98498.80
2022-09-28T02:30:43.368Z,98502.60
2022-09-28T02:33:21.235Z,98497.20
2022-09-28T02:35:54.351Z,98495.20
2022-09-28T02:38:28.190Z,98498.80
2022-09-28T02:41:09.661Z,98494.60
2022-09-28T02:43:57.653Z,98492.60
2022-09-28T02:46:40.465Z,98495.80
2022-09-28T02:49:29.368Z,98491.00
2022-09-28T02:52:25.455Z,98498.00
2022-09-28T02:55:35.517Z,98492.40
2022-09-28T02:58:26.214Z,98498.40
2022-09-28T03:01:04.694Z,98496.00
2022-09-28T03:03:47.665Z,98499.60
2022-09-28T03:06:28.828Z,98498.40
2022-09-28T03:09:07.147Z,98497.40
2022-09-28T03:11:44.874Z,98498.20
2022-09-28T03:14:18.458Z,98495.60
2022-09-28T03:16:56.343Z,98497.80
2022-09-28T03:19:32.731Z,98499.20
2022-09-28T03:22:06.469Z,98502.20
2022-09-28T03:24:39.622Z,98508.80
2022-09-28T03:27:12.694Z,98506.40
2022-09-28T03:29:45.596Z,98505.40
2022-09-28T03:32:18.296Z,98501.00
2022-09-28T03:34:51.453Z,98502.60
2022-09-28T03:37:24.234Z,98497.00
2022-09-28T03:39:57.630Z,98499.40
2022-09-28T03:42:30.514Z,98500.40
2022-09-28T03:45:03.504Z,98501.80
2022-09-28T03:47:36.234Z,98500.20
2022-09-28T03:50:10.782Z,98503.20
2022-09-28T03:52:43.410Z,98496.40
2022-09-28T03:55:16.591Z,98494.60
2022-09-28T03:57:56.229Z,98496.60
2022-09-28T04:00:29.094Z,98491.80
2022-09-28T04:03:01.784Z,98496.20
2022-09-28T04:05:36.218Z,98493.00
2022-09-28T04:08:08.909Z,98493.40
2022-09-28T04:10:42.120Z,98495.20
2022-09-28T04:13:15.470Z,98500.80
2022-09-28T04:15:55.758Z,98498.00
2022-09-28T04:18:29.114Z,98499.60
2022-09-28T04:21:20.938Z,98494.40
2022-09-28T04:24:05.576Z,98489.80
2022-09-28T04:26:38.709Z,98494.20
2022-09-28T04:29:17.471Z,98492.40
2022-09-28T04:31:56.206Z,98486.40
2022-09-28T04:34:44.158Z,98481.80
2022-09-28T04:37:17.900Z,98481.20
2022-09-28T04:39:50.931Z,98484.40
2022-09-28T04:42:25.402Z,98485.60
2022-09-28T04:44:58.977Z,98481.60
2022-09-28T04:47:33.016Z,98478.40
2022-09-28T04:50:10.507Z,98481.20
2022-09-28T04:53:04.896Z,98477.40
2022-09-28T04:55:37.573Z,98480.80
2022-09-28T04:58:10.466Z,98483.00
2022-09-28T05:00:43.416Z,98485.60
2022-09-28T05:03:27.029Z,98482.80
2022-09-28T05:06:31.001Z,98491.00
2022-09-28T05:09:09.489Z,98489.80
2022-09-28T05:11:42.506Z,98487.60
2022-09-28T05:14:22.090Z,98489.80
2022-09-28T05:16:54.633Z,98483.60
2022-09-28T05:19:35.183Z,98479.00
2022-09-28T05:22:14.206Z,98480.00
2022-09-28T05:24:50.574Z,98475.80
2022-09-28T05:27:23.461Z,98477.40
2022-09-28T05:30:05.070Z,98477.40
2022-09-28T05:32:56.569Z,98473.00
2022-09-28T05:35:34.977Z,98474.20
2022-09-28T05:38:10.836Z,98471.00
2022-09-28T05:40:43.876Z,98471.00
2022-09-28T05:43:16.814Z,98469.40
2022-09-28T05:45:55.121Z,98471.00
2022-09-28T05:48:28.625Z,98476.60
2022-09-28T05:51:02.047Z,98472.00
2022-09-28T05:53:34.708Z,98470.00
2022-09-28T05:56:08.284Z,98472.60
2022-09-28T05:58:43.036Z,98467.00
2022-09-28T06:01:16.927Z,98465.80
2022-09-28T06:03:50.913Z,98461.40
2022-09-28T06:06:24.023Z,98459.20
2022-09-28T06:08:57.027Z,98463.00
2022-09-28T06:11:50.064Z,98456.20
2022-09-28T06:14:52.049Z,98456.60
2022-09-28T06:17:24.932Z,98459.00
2022-09-28T06:20:17.788Z,98455.20
2022-09-28T06:23:02.150Z,98459.00
2022-09-28T06:25:34.840Z,98453.00
2022-09-28T06:28:12.158Z,98449.80
2022-09-28T06:30:48.436Z,98450.40
2022-09-28T06:33:26.683Z,98455.20
2022-09-28T06:36:01.821Z,98457.80
2022-09-28T06:38:34.396Z,98454.80
2022-09-28T06:41:07.543Z,98459.40
2022-09-28T06:43:40.984Z,98448.20
2022-09-28T06:46:32.917Z,98438.80
2022-09-28T06:49:35.290Z,98443.20
2022-09-28T06:52:27.122Z,98444.80
2022-09-28T06:55:12.314Z,98438.80
2022-09-28T06:57:58.310Z,98431.00
2022-09-28T07:00:33.238Z,98431.80
2022-09-28T07:03:08.124Z,98434.20
2022-09-28T07:06:05.018Z,98427.00
2022-09-28T07:08:40.263Z,98421.20
2022-09-28T07:11:34.626Z,98421.20
2022-09-28T07:14:47.317Z,98422.00
2022-09-28T07:17:21.285Z,98414.80
2022-09-28T07:19:59.625Z,98418.00
2022-09-28T07:22:42.732Z,98424.40
2022-09-28T07:25:20.697Z,98429.40
2022-09-28T07:28:20.509Z,98434.80
2022-09-28T07:30:53.283Z,98437.80
2022-09-28T07:33:46.880Z,98438.40
2022-09-28T07:36:35.595Z,98440.00
2022-09-28T07:39:08.812Z,98436.20
2022-09-28T07:41:41.819Z,98438.00
2022-09-28T07:44:15.630Z,98437.40
2022-09-28T07:46:51.046Z,98436.20
2022-09-28T07:49:31.006Z,98431.80
2022-09-28T07:52:21.084Z,98428.60
2022-09-28T07:55:23.380Z,98423.00
2022-09-28T07:58:05.156Z,98427.40
2022-09-28T08:00:51.979Z,98426.80
2022-09-28T08:03:25.268Z,98425.80
2022-09-28T08:06:03.876Z,98416.20
2022-09-28T08:08:38.204Z,98415.60
2022-09-28T08:11:12.825Z,98422.00
2022-09-28T08:14:00.560Z,98426.80
2022-09-28T08:17:03.759Z,98424.40
2022-09-28T08:20:18.940Z,98419.60
2022-09-28T08:22:52.688Z,98421.60
2022-09-28T08:25:25.722Z,98424.40
2022-09-28T08:27:58.810Z,98423.80
2022-09-28T08:30:32.901Z,98424.20
2022-09-28T08:33:21.581Z,98421.40
2022-09-28T08:36:01.130Z,98411.80
2022-09-28T08:38:52.294Z,98405.80
2022-09-28T08:41:50.920Z,98410.60
2022-09-28T08:48:11.032Z,98416.60
2022-09-28T08:51:03.067Z,98408.60
2022-09-28T08:54:01.018Z,98407.20
2022-09-28T08:56:49.251Z,98408.20
2022-09-28T08:59:27.166Z,98399.00
2022-09-28T09:02:17.149Z,98390.60
2022-09-28T09:04:51.742Z,98390.40
2022-09-28T09:08:28.276Z,98390.60
2022-09-28T09:11:12.503Z,98387.80
2022-09-28T09:14:45.236Z,98380.80
2022-09-28T09:17:31.110Z,98381.60
2022-09-28T09:20:49.147Z,98386.20
2022-09-28T09:23:59.020Z,98389.60
2022-09-28T09:26:39.818Z,98384.20
2022-09-28T09:29:30.590Z,98379.80
2022-09-28T09:32:19.129Z,98376.00
2022-09-28T09:35:13.784Z,98382.00
2022-09-28T09:38:32.268Z,98391.20
2022-09-28T09:41:42.426Z,98391.60
2022-09-28T09:44:48.919Z,98389.20
2022-09-28T09:47:45.239Z,98390.00
2022-09-28T09:50:39.727Z,98385.00
2022-09-28T09:53:24.388Z,98384.00
2022-09-28T09:56:04.034Z,98379.60
2022-09-28T09:58:49.815Z,98380.80
2022-09-28T10:01:34.662Z,98379.80
2022-09-28T10:04:36.343Z,98373.40
2022-09-28T10:07:23.606Z,98368.40
2022-09-28T10:10:01.442Z,98369.80
2022-09-28T10:12:50.114Z,98374.40
2022-09-28T10:15:28.710Z,98373.00
2022-09-28T10:18:20.851Z,98374.80
2022-09-28T10:21:18.074Z,98380.80
2022-09-28T10:24:02.896Z,98380.20
2022-09-28T10:26:41.924Z,98380.00
2022-09-28T10:29:22.280Z,98382.60
2022-09-28T10:31:56.390Z,98382.40
2022-09-28T10:34:35.831Z,98388.60
2022-09-28T10:37:14.503Z,98384.00
2022-09-28T10:40:29.731Z,98387.20
2022-09-28T10:43:16.044Z,98393.60
2022-09-28T10:45:50.973Z,98397.00
2022-09-28T10:48:25.074Z,98394.20
2022-09-28T10:51:08.406Z,98393.60
2022-09-28T10:53:42.004Z,98399.00
2022-09-28T10:56:46.669Z,98395.20
2022-09-28T10:59:44.412Z,98401.00
2022-09-28T11:02:35.437Z,98412.40
2022-09-28T11:05:28.268Z,98424.60
2022-09-28T11:08:07.736Z,98436.20
2022-09-28T11:10:47.522Z,98437.00
2022-09-28T11:13:20.439Z,98435.00
2022-09-28T11:16:00.799Z,98442.20
2022-09-28T11:18:37.982Z,98436.60
2022-09-28T11:21:18.718Z,98424.00
2022-09-28T11:24:23.225Z,98419.20
2022-09-28T11:27:00.336Z,98415.40
2022-09-28T11:29:42.870Z,98416.80
2022-09-28T11:32:41.564Z,98414.00
2022-09-28T11:35:34.968Z,98409.80
2022-09-28T11:38:33.791Z,98407.20
2022-09-28T11:41:53.912Z,98412.20
2022-09-28T11:44:46.643Z,98415.40
2022-09-28T11:47:50.677Z,98417.00
2022-09-28T11:50:43.838Z,98410.40
2022-09-28T11:53:24.314Z,98411.00
2022-09-28T11:56:13.363Z,98411.40
2022-09-28T11:58:50.363Z,98417.40
2022-09-28T12:01:35.788Z,98413.40
2022-09-28T12:04:35.566Z,98413.20
2022-09-28T12:07:17.852Z,98415.20
2022-09-28T12:09:58.113Z,98413.40
2022-09-28T12:12:33.992Z,98408.00
2022-09-28T12:15:20.972Z,98402.40
2022-09-28T12:18:02.050Z,98401.60
2022-09-28T12:20:39.955Z,98396.40
2022-09-28T12:23:19.389Z,98396.80
2022-09-28T12:26:00.209Z,98391.00
2022-09-28T12:28:40.488Z,98395.60
2022-09-28T12:31:21.557Z,98391.20
2022-09-28T12:33:55.713Z,98384.40
2022-09-28T12:36:44.328Z,98381.60
2022-09-28T12:39:53.428Z,98374.80
2022-09-28T12:42:58.856Z,98382.40
2022-09-28T12:46:11.111Z,98379.40
2022-09-28T12:52:29.198Z,98367.20
2022-09-28T12:55:43.364Z,98363.60
2022-09-28T12:58:36.826Z,98357.60
2022-09-28T13:01:30.246Z,98353.00
2022-09-28T13:04:41.154Z,98341.60
2022-09-28T13:07:21.202Z,98338.80
2022-09-28T13:10:11.420Z,98334.80
2022-09-28T13:13:04.272Z,98343.00
2022-09-28T13:15:56.143Z,98331.40
2022-09-28T13:18:34.989Z,98327.80
2022-09-28T13:21:24.188Z,98329.40
2022-09-28T13:24:20.752Z,98337.80
2022-09-28T13:26:55.594Z,98339.00
2022-09-28T13:29:28.995Z,98333.80
2022-09-28T13:32:03.929Z,98338.60
2022-09-28T13:34:39.289Z,98343.80
2022-09-28T13:37:28.607Z,98337.80
2022-09-28T13:40:06.344Z,98344.20
2022-09-28T13:43:06.939Z,98341.80
2022-09-28T13:45:54.902Z,98342.00
2022-09-28T13:48:37.078Z,98340.60
2022-09-28T13:51:27.675Z,98340.20
2022-09-28T13:54:25.663Z,98338.80
2022-09-28T13:57:15.273Z,98340.20
2022-09-28T14:00:03.981Z,98337.20
2022-09-28T14:02:50.544Z,98336.00
2022-09-28T14:05:52.269Z,98336.60
2022-09-28T14:08:35.925Z,98331.60
2022-09-28T14:11:57.424Z,98321.60
2022-09-28T14:14:50.753Z,98319.80
2022-09-28T14:18:08.628Z,98320.80
2022-09-28T14:20:56.132Z,98332.00
2022-09-28T14:23:59.889Z,98335.20
2022-09-28T14:27:11.758Z,98324.00
2022-09-28T14:29:45.387Z,98311.40
2022-09-28T14:32:37.223Z,98314.60
2022-09-28T14:35:19.014Z,98317.00
2022-09-28T14:38:15.828Z,98311.40
2022-09-28T14:41:13.995Z,98318.20
2022-09-28T14:44:08.171Z,98316.40
2022-09-28T14:46:48.715Z,98309.40
2022-09-28T14:49:58.392Z,98311.40
2022-09-28T14:52:52.269Z,98305.60
2022-09-28T14:55:33.139Z,98304.20
2022-09-28T14:58:08.068Z,98314.40
2022-09-28T15:00:44.646Z,98313.40
2022-09-28T15:03:18.687Z,98310.80
2022-09-28T15:05:52.605Z,98305.60
2022-09-28T15:08:36.816Z,98299.20
2022-09-28T15:11:16.365Z,98293.00
2022-09-28T15:13:49.240Z,98301.40
2022-09-28T15:16:25.706Z,98297.00
2022-09-28T15:19:26.523Z,98293.00
2022-09-28T15:21:59.243Z,98299.80
2022-09-28T15:24:35.125Z,98302.00
2022-09-28T15:27:19.292Z,98306.40
2022-09-28T15:30:03.210Z,98308.20
2022-09-28T15:32:37.506Z,98309.40
2022-09-28T15:35:22.742Z,98304.80
2022-09-28T15:37:56.625Z,98302.20
2022-09-28T15:40:36.948Z,98304.60
2022-09-28T15:43:27.148Z,98308.40
2022-09-28T15:46:14.263Z,98308.20
2022-09-28T15:48:55.424Z,98315.00
2022-09-28T15:51:30.366Z,98316.20
2022-09-28T15:54:11.027Z,98322.40
2022-09-28T15:56:59.891Z,98323.40
2022-09-28T15:59:36.901Z,98326.80
2022-09-28T16:02:20.951Z,98336.20
2022-09-28T16:04:56.351Z,98334.80
2022-09-28T16:07:34.707Z,98339.20
2022-09-28T16:10:35.194Z,98345.60
2022-09-28T16:13:28.147Z,98347.60
2022-09-28T16:16:02.304Z,98355.60
2022-09-28T16:18:38.510Z,98352.60
2022-09-28T16:21:44.829Z,98354.00
2022-09-28T16:24:30.877Z,98352.80
2022-09-28T16:27:06.769Z,98347.60
2022-09-28T16:29:42.191Z,98357.20
2022-09-28T16:32:48.895Z,98358.80
2022-09-28T16:35:31.902Z,98365.20
2022-09-28T16:38:13.909Z,98368.80
2022-09-28T16:40:49.736Z,98362.00
2022-09-28T16:43:27.226Z,98367.60
2022-09-28T16:46:03.539Z,98368.80
2022-09-28T16:48:40.679Z,98369.20
2022-09-28T16:51:14.026Z,98360.60
2022-09-28T16:54:03.971Z,98361.60
2022-09-28T16:56:38.189Z,98365.80
2022-09-28T16:59:13.962Z,98371.20
2022-09-28T17:01:47.600Z,98378.00
2022-09-28T17:04:20.363Z,98378.20
2022-09-28T17:06:54.569Z,98385.20
2022-09-28T17:09:27.619Z,98388.60
2022-09-28T17:12:01.940Z,98390.00
2022-09-28T17:14:34.615Z,98395.20
2022-09-28T17:17:10.586Z,98397.80
2022-09-28T17:19:46.789Z,98402.00
2022-09-28T17:22:19.515Z,98407.00
2022-09-28T17:24:52.297Z,98402.40
2022-09-28T17:27:24.959Z,98405.60
2022-09-28T17:29:57.733Z,98404.40
2022-09-28T17:32:35.475Z,98401.20
2022-09-28T17:35:24.040Z,98408.80
2022-09-28T17:37:57.623Z,98416.80
2022-09-28T17:40:32.574Z,98415.60
2022-09-28T17:43:05.848Z,98418.20
2022-09-28T17:45:41.229Z,98421.20
2022-09-28T17:48:16.929Z,98420.00
2022-09-28T17:50:50.792Z,98424.00
2022-09-28T17:53:23.581Z,98426.20
2022-09-28T17:55:56.339Z,98425.40
2022-09-28T17:58:29.090Z,98427.80
2022-09-28T18:01:01.767Z,98431.00
2022-09-28T18:03:34.654Z,98435.40
2022-09-28T18:06:13.477Z,98444.00
2022-09-28T18:08:47.011Z,98443.20
2022-09-28T18:11:20.064Z,98447.40
2022-09-28T18:13:52.847Z,98445.40
2022-09-28T18:16:28.089Z,98451.00
2022-09-28T18:19:01.537Z,98456.80
2022-09-28T18:21:35.879Z,98459.20
2022-09-28T18:24:09.207Z,98467.80
2022-09-28T18:26:42.117Z,98469.80
2022-09-28T18:29:15.285Z,98472.60
2022-09-28T18:31:49.015Z,98475.40
2022-09-28T18:34:21.999Z,98478.40
2022-09-28T18:36:55.020Z,98481.40
2022-09-28T18:39:28.318Z,98482.00
2022-09-28T18:42:02.275Z,98485.00
2022-09-28T18:44:35.459Z,98488.40
2022-09-28T18:47:08.451Z,98493.00
2022-09-28T18:49:44.746Z,98497.80
2022-09-28T18:52:19.644Z,98497.60
2022-09-28T18:54:52.837Z,98501.40
2022-09-28T18:57:26.158Z,98502.40
2022-09-28T18:59:58.967Z,98508.00
2022-09-28T19:02:32.415Z,98507.80
2022-09-28T19:05:06.611Z,98513.20
2022-09-28T19:07:40.015Z,98517.60
2022-09-28T19:10:13.313Z,98515.80
2022-09-28T19:12:46.207Z,98519.20
2022-09-28T19:15:19.807Z,98522.20
2022-09-28T19:17:52.906Z,98517.60
2022-09-28T19:20:25.560Z,98521.00
2022-09-28T19:22:59.468Z,98519.80
2022-09-28T19:25:32.351Z,98519.00
2022-09-28T19:28:05.753Z,98524.20
2022-09-28T19:30:39.078Z,98528.60
2022-09-28T19:33:11.929Z,98534.80
2022-09-28T19:35:44.740Z,98532.80
2022-09-28T19:38:17.391Z,98524.80
2022-09-28T19:40:50.201Z,98526.00
2022-09-28T19:43:23.157Z,98526.00
2022-09-28T19:45:57.198Z,98537.80
2022-09-28T19:48:31.895Z,98535.20
2022-09-28T19:51:06.688Z,98535.80
2022-09-28T19:53:41.253Z,98543.00
2022-09-28T19:56:13.929Z,98539.20
2022-09-28T19:58:46.711Z,98545.20
2022-09-28T20:01:19.658Z,98545.80
2022-09-28T20:03:52.485Z,98553.20
2022-09-28T20:06:25.265Z,98559.40
2022-09-28T20:08:59.864Z,98557.00
2022-09-28T20:11:32.675Z,98567.60
2022-09-28T20:14:09.883Z,98571.20
2022-09-28T20:16:42.744Z,98570.80
2022-09-28T20:19:16.032Z,98576.60
2022-09-28T20:21:49.371Z,98580.80
2022-09-28T20:24:22.329Z,98582.60
2022-09-28T20:26:55.341Z,98585.60
2022-09-28T20:29:28.092Z,98592.20
2022-09-28T20:32:00.866Z,98595.60
2022-09-28T20:34:34.807Z,98601.20
2022-09-28T20:37:07.547Z,98603.80
2022-09-28T20:39:44.697Z,98604.60
2022-09-28T20:42:18.257Z,98611.20
2022-09-28T20:44:51.235Z,98615.60
2022-09-28T20:47:24.214Z,98619.80
2022-09-28T20:49:56.929Z,98630.00
2022-09-28T20:52:29.792Z,98633.20
2022-09-28T20:55:02.780Z,98636.20
2022-09-28T20:57:35.760Z,98638.80
2022-09-28T21:00:11.775Z,98635.60
2022-09-28T21:02:44.860Z,98647.40
2022-09-28T21:05:17.944Z,98647.80
2022-09-28T21:07:50.778Z,98649.80
2022-09-28T21:10:23.661Z,98651.40
2022-09-28T21:12:56.546Z,98656.80
2022-09-28T21:15:29.377Z,98657.40
2022-09-28T21:18:03.253Z,98661.60
2022-09-28T21:20:36.221Z,98662.20
2022-09-28T21:23:09.006Z,98664.00
2022-09-28T21:25:41.889Z,98664.40
2022-09-28T21:28:14.778Z,98665.80
2022-09-28T21:30:48.485Z,98663.20
2022-09-28T21:33:21.260Z,98664.80
2022-09-28T21:35:54.157Z,98670.00
2022-09-28T21:38:27.058Z,98672.40
2022-09-28T21:41:00.838Z,98673.60
2022-09-28T21:43:34.513Z,98676.20
2022-09-28T21:46:07.524Z,98675.60
2022-09-28T21:48:40.347Z,98676.40
2022-09-28T21:51:15.757Z,98673.00
2022-09-28T21:53:49.340Z,98681.60
2022-09-28T21:56:23.163Z,98681.60
2022-09-28T21:58:56.117Z,98687.60
2022-09-28T22:01:29.669Z,98691.40
2022-09-28T22:04:04.487Z,98694.40
2022-09-28T22:06:37.290Z,98694.00
2022-09-28T22:09:10.347Z,98691.00
2022-09-28T22:11:43.028Z,98692.20
2022-09-28T22:14:16.087Z,98696.60
2022-09-28T22:16:48.799Z,98694.40
2022-09-28T22:19:21.677Z,98698.20
2022-09-28T22:21:54.363Z,98700.40
2022-09-28T22:24:27.555Z,98697.00
2022-09-28T22:27:00.173Z,98695.40
2022-09-28T22:29:33.166Z,98695.00
2022-09-28T22:32:07.663Z,98697.00
2022-09-28T22:34:40.543Z,98697.00
2022-09-28T22:37:13.328Z,98699.80
2022-09-28T22:39:46.092Z,98702.20
2022-09-28T22:42:18.883Z,98701.40
2022-09-28T22:44:51.577Z,98704.60
2022-09-28T22:47:24.239Z,98711.60
2022-09-28T22:49:56.813Z,98710.40
2022-09-28T22:52:29.591Z,98710.60
2022-09-28T22:55:02.275Z,98714.80
2022-09-28T22:57:35.059Z,98716.80
2022-09-28T23:00:12.812Z,98716.80
2022-09-28T23:02:45.643Z,98717.40
2022-09-28T23:05:19.547Z,98717.80
2022-09-28T23:07:52.227Z,98721.00
2022-09-28T23:10:25.432Z,98725.20
2022-09-28T23:12:59.034Z,98721.40
2022-09-28T23:15:32.207Z,98719.60
2022-09-28T23:18:05.086Z,98722.60
2022-09-28T23:20:38.239Z,98722.60
2022-09-28T23:23:11.476Z,98725.80
2022-09-28T23:25:44.368Z,98718.80
2022-09-28T23:28:17.251Z,98720.80
2022-09-28T23:30:50.896Z,98718.60
2022-09-28T23:33:24.448Z,98722.60
2022-09-28T23:35:57.444Z,98725.60
2022-09-28T23:38:30.425Z,98722.60
2022-09-28T23:41:03.105Z,98727.40
2022-09-28T23:43:36.605Z,98721.20
2022-09-28T23:46:09.922Z,98720.20
2022-09-28T23:48:42.748Z,98718.80
2022-09-28T23:51:15.475Z,98715.20
2022-09-28T23:53:48.277Z,98715.80
2022-09-28T23:56:21.585Z,98720.00
2022-09-28T23:58:54.318Z,98720.00
